createdAt,value
2019-01-27T00:01:14.346Z,1.70
2019-01-27T00:03:42.376Z,2.17
2019-01-27T00:06:10.438Z,1.67
2019-01-27T00:08:38.368Z,2.20
2019-01-27T00:11:06.280Z,2.00
2019-01-27T00:13:34.232Z,1.30
2019-01-27T00:16:02.152Z,1.67
2019-01-27T00:18:30.099Z,1.90
2019-01-27T00:20:58.117Z,2.30
2019-01-27T00:23:26.289Z,1.43
2019-01-27T00:25:54.200Z,1.47
2019-01-27T00:28:22.104Z,1.60
2019-01-27T00:30:50.177Z,2.57
2019-01-27T00:33:18.131Z,2.30
2019-01-27T00:35:46.067Z,2.60
2019-01-27T00:38:13.912Z,1.80
2019-01-27T00:40:41.869Z,1.53
2019-01-27T00:43:10.096Z,1.60
2019-01-27T00:45:37.990Z,1.67
2019-01-27T00:48:06.013Z,2.80
2019-01-27T00:50:34.502Z,2.40
2019-01-27T00:53:02.478Z,1.20
2019-01-27T00:55:30.358Z,1.40
2019-01-27T00:57:58.531Z,1.67
2019-01-27T01:00:26.575Z,1.60
2019-01-27T01:02:54.545Z,1.83
2019-01-27T01:05:22.444Z,3.70
2019-01-27T01:07:50.695Z,1.10
2019-01-27T01:10:18.955Z,1.40
2019-01-27T01:12:47.029Z,1.33
2019-01-27T01:15:14.981Z,1.80
2019-01-27T01:17:42.930Z,2.03
2019-01-27T01:20:12.520Z,1.30
2019-01-27T01:22:41.795Z,1.17
2019-01-27T01:25:11.158Z,1.50
2019-01-27T01:27:39.219Z,1.27
2019-01-27T01:30:07.550Z,1.40
2019-01-27T01:32:35.451Z,1.37
2019-01-27T01:35:03.408Z,0.97
2019-01-27T01:37:32.680Z,0.93
2019-01-27T01:40:00.629Z,2.70
2019-01-27T01:42:28.483Z,0.87
2019-01-27T01:44:56.451Z,0.87
2019-01-27T01:47:24.356Z,0.80
2019-01-27T01:49:52.247Z,1.10
2019-01-27T01:52:20.116Z,0.90
2019-01-27T01:54:48.103Z,1.40
2019-01-27T01:57:16.136Z,0.80
2019-01-27T01:59:44.290Z,0.77
2019-01-27T02:02:12.202Z,1.00
2019-01-27T02:04:40.251Z,0.60
2019-01-27T02:07:08.189Z,1.00
2019-01-27T02:09:36.231Z,1.00
2019-01-27T02:12:04.311Z,1.57
2019-01-27T02:14:32.192Z,2.27
2019-01-27T02:17:00.177Z,1.47
2019-01-27T02:19:28.059Z,0.80
2019-01-27T02:21:55.964Z,0.70
2019-01-27T02:24:24.082Z,1.00
2019-01-27T02:26:51.993Z,0.90
2019-01-27T02:29:19.852Z,1.40
2019-01-27T02:31:47.736Z,0.77
2019-01-27T02:34:15.627Z,0.70
2019-01-27T02:36:43.535Z,1.07
2019-01-27T02:39:11.426Z,0.80
2019-01-27T02:41:39.280Z,0.80
2019-01-27T02:44:07.160Z,1.60
2019-01-27T02:46:35.113Z,0.80
2019-01-27T02:49:03.007Z,0.67
2019-01-27T02:51:30.896Z,1.23
2019-01-27T02:53:58.891Z,1.00
2019-01-27T02:56:26.766Z,1.17
2019-01-27T02:58:54.858Z,0.90
2019-01-27T03:01:22.759Z,0.80
2019-01-27T03:03:50.684Z,0.53
2019-01-27T03:06:27.691Z,0.77
2019-01-27T03:09:17.041Z,0.80
2019-01-27T03:11:48.815Z,0.93
2019-01-27T03:14:17.700Z,1.43
2019-01-27T03:16:45.934Z,1.70
2019-01-27T03:19:13.853Z,1.33
2019-01-27T03:21:41.736Z,1.13
2019-01-27T03:24:09.664Z,0.60
2019-01-27T03:26:37.537Z,1.00
2019-01-27T03:29:05.447Z,0.60
2019-01-27T03:31:33.381Z,0.60
2019-01-27T03:34:01.312Z,0.90
2019-01-27T03:36:29.237Z,0.73
2019-01-27T03:38:57.245Z,0.80
2019-01-27T03:41:25.217Z,0.80
2019-01-27T03:43:53.412Z,0.60
2019-01-27T03:46:21.303Z,1.37
2019-01-27T03:48:49.262Z,0.70
2019-01-27T03:51:17.288Z,0.60
2019-01-27T03:53:45.272Z,1.07
2019-01-27T03:56:13.248Z,0.53
2019-01-27T03:58:41.170Z,0.50
2019-01-27T04:01:09.051Z,0.70
2019-01-27T04:03:37.176Z,1.07
2019-01-27T04:06:05.218Z,0.50
2019-01-27T04:08:33.111Z,1.13
2019-01-27T04:11:01.099Z,0.80
2019-01-27T04:13:29.106Z,1.63
2019-01-27T04:15:56.989Z,0.70
2019-01-27T04:18:24.902Z,0.70
2019-01-27T04:20:52.825Z,0.87
2019-01-27T04:23:20.747Z,0.77
2019-01-27T04:25:48.660Z,0.63
2019-01-27T04:28:16.580Z,1.50
2019-01-27T04:30:44.994Z,1.03
2019-01-27T04:33:13.341Z,1.20
2019-01-27T04:35:41.656Z,7.23
2019-01-27T04:38:09.662Z,3.80
2019-01-27T04:40:37.777Z,0.70
2019-01-27T04:43:05.795Z,1.23
2019-01-27T04:45:35.763Z,0.70
2019-01-27T04:48:03.773Z,1.27
2019-01-27T04:50:31.764Z,2.50
2019-01-27T04:52:59.857Z,0.70
2019-01-27T04:55:27.796Z,0.70
2019-01-27T04:57:55.873Z,0.70
2019-01-27T05:00:24.524Z,2.87
2019-01-27T05:03:17.948Z,0.70
2019-01-27T05:05:46.248Z,1.20
2019-01-27T05:08:14.566Z,0.80
2019-01-27T05:10:42.554Z,0.93
2019-01-27T05:13:10.616Z,1.10
2019-01-27T05:15:38.812Z,1.10
2019-01-27T05:18:06.704Z,0.80
2019-01-27T05:20:34.777Z,0.67
2019-01-27T05:23:02.723Z,1.47
2019-01-27T05:25:30.695Z,0.70
2019-01-27T05:27:58.678Z,0.80
2019-01-27T05:30:26.740Z,1.00
2019-01-27T05:32:54.705Z,0.87
2019-01-27T05:35:22.678Z,1.20
2019-01-27T05:37:50.573Z,2.40
2019-01-27T05:40:18.642Z,2.20
2019-01-27T05:42:46.871Z,2.73
2019-01-27T05:45:15.032Z,0.60
2019-01-27T05:47:43.035Z,0.60
2019-01-27T05:50:12.016Z,0.83
2019-01-27T05:52:40.142Z,0.80
2019-01-27T05:55:08.649Z,0.70
2019-01-27T05:57:36.626Z,0.77
2019-01-27T06:00:06.717Z,0.90
2019-01-27T06:02:34.774Z,1.97
2019-01-27T06:05:02.705Z,2.63
2019-01-27T06:07:30.985Z,1.53
2019-01-27T06:09:59.156Z,1.57
2019-01-27T06:12:27.127Z,1.27
2019-01-27T06:14:55.220Z,1.33
2019-01-27T06:17:23.186Z,1.03
2019-01-27T06:19:51.222Z,1.13
2019-01-27T06:22:19.382Z,0.70
2019-01-27T06:24:47.485Z,0.67
2019-01-27T06:27:16.898Z,2.40
2019-01-27T06:29:44.770Z,1.40
2019-01-27T06:32:19.562Z,1.00
2019-01-27T06:34:47.580Z,0.70
2019-01-27T06:37:15.488Z,0.93
2019-01-27T06:39:43.479Z,1.13
2019-01-27T06:42:11.611Z,0.67
2019-01-27T06:44:39.568Z,1.23
2019-01-27T06:47:07.511Z,0.77
2019-01-27T06:49:35.489Z,1.30
2019-01-27T06:52:03.441Z,1.07
2019-01-27T06:54:31.419Z,1.00
2019-01-27T06:56:59.448Z,1.53
2019-01-27T06:59:34.249Z,0.60
2019-01-27T07:02:21.330Z,0.90
2019-01-27T07:05:02.991Z,2.00
2019-01-27T07:08:02.143Z,2.13
2019-01-27T07:10:49.040Z,1.63
2019-01-27T07:13:31.807Z,0.90
2019-01-27T07:16:24.597Z,0.73
2019-01-27T07:19:14.557Z,1.33
2019-01-27T07:22:01.542Z,0.90
2019-01-27T07:24:49.064Z,1.77
2019-01-27T07:27:34.208Z,1.37
2019-01-27T07:30:19.865Z,0.77
2019-01-27T07:33:16.022Z,1.03
2019-01-27T07:36:00.144Z,1.10
2019-01-27T07:38:47.245Z,0.80
2019-01-27T07:41:43.531Z,0.40
2019-01-27T07:44:23.347Z,0.70
2019-01-27T07:47:04.086Z,0.53
2019-01-27T07:49:50.757Z,0.50
2019-01-27T07:52:36.576Z,0.50
2019-01-27T07:55:22.176Z,0.60
2019-01-27T07:58:09.242Z,0.60
2019-01-27T08:00:51.367Z,0.60
2019-01-27T08:03:44.283Z,0.60
2019-01-27T08:06:21.698Z,0.60
2019-01-27T08:09:11.536Z,1.10
2019-01-27T08:11:51.492Z,0.80
2019-01-27T08:14:27.335Z,0.77
2019-01-27T08:17:14.221Z,1.70
2019-01-27T08:19:52.700Z,0.50
2019-01-27T08:22:49.750Z,0.80
2019-01-27T08:25:39.741Z,1.03
2019-01-27T08:28:38.895Z,1.83
2019-01-27T08:31:25.988Z,0.70
2019-01-27T08:34:22.144Z,1.43
2019-01-27T08:37:12.120Z,1.07
2019-01-27T08:39:51.495Z,1.40
2019-01-27T08:42:41.480Z,0.77
2019-01-27T08:45:19.112Z,0.70
2019-01-27T08:47:47.100Z,0.90
2019-01-27T08:50:22.298Z,1.00
2019-01-27T08:52:50.358Z,1.53
2019-01-27T08:55:18.295Z,0.60
2019-01-27T08:57:46.180Z,0.80
2019-01-27T09:00:15.682Z,0.50
2019-01-27T09:03:05.424Z,0.70
2019-01-27T09:05:55.212Z,0.50
2019-01-27T09:08:45.153Z,0.60
2019-01-27T09:11:41.184Z,0.90
2019-01-27T09:14:26.954Z,0.67
2019-01-27T09:17:12.519Z,0.50
2019-01-27T09:20:05.361Z,0.70
2019-01-27T09:22:50.025Z,0.77
2019-01-27T09:25:35.559Z,0.80
2019-01-27T09:28:19.062Z,1.97
2019-01-27T09:31:02.116Z,1.03
2019-01-27T09:33:50.783Z,0.80
2019-01-27T09:36:37.824Z,0.60
2019-01-27T09:39:36.593Z,0.50
2019-01-27T09:42:42.047Z,0.60
2019-01-27T09:45:34.597Z,1.00
2019-01-27T09:48:29.193Z,5.40
2019-01-27T09:51:22.119Z,2.87
2019-01-27T09:54:05.794Z,0.83
2019-01-27T09:56:55.835Z,1.13
2019-01-27T09:59:38.429Z,0.60
2019-01-27T10:02:24.892Z,1.03
2019-01-27T10:05:16.990Z,0.70
2019-01-27T10:08:06.786Z,0.80
2019-01-27T10:10:56.893Z,0.80
2019-01-27T10:13:45.380Z,1.47
2019-01-27T10:16:41.612Z,0.80
2019-01-27T10:19:26.663Z,0.60
2019-01-27T10:22:25.708Z,0.97
2019-01-27T10:25:15.991Z,1.07
2019-01-27T10:28:01.920Z,1.20
2019-01-27T10:30:59.792Z,1.23
2019-01-27T10:33:38.043Z,0.70
2019-01-27T10:36:37.257Z,1.93
2019-01-27T10:39:24.714Z,0.90
2019-01-27T10:42:01.208Z,0.87
2019-01-27T10:44:46.765Z,1.10
2019-01-27T10:47:36.670Z,0.70
2019-01-27T10:50:14.050Z,0.80
2019-01-27T10:53:07.524Z,0.63
2019-01-27T10:55:47.631Z,0.70
2019-01-27T10:58:34.694Z,0.70
2019-01-27T11:01:21.329Z,1.43
2019-01-27T11:04:26.952Z,0.80
2019-01-27T11:07:12.633Z,1.57
2019-01-27T11:09:48.880Z,1.13
2019-01-27T11:12:38.804Z,0.60
2019-01-27T11:15:17.035Z,1.30
2019-01-27T11:18:16.197Z,0.60
2019-01-27T11:21:06.207Z,0.80
2019-01-27T11:24:05.143Z,0.50
2019-01-27T11:26:42.471Z,0.60
2019-01-27T11:29:20.412Z,1.07
2019-01-27T11:32:00.343Z,1.10
2019-01-27T11:34:36.276Z,0.60
2019-01-27T11:37:38.490Z,1.77
2019-01-27T11:40:16.961Z,0.67
2019-01-27T11:43:18.962Z,1.00
2019-01-27T11:46:06.109Z,0.80
2019-01-27T11:48:51.632Z,1.50
2019-01-27T11:51:26.599Z,1.40
2019-01-27T11:53:55.479Z,0.93
2019-01-27T11:56:24.062Z,2.53
2019-01-27T11:58:52.493Z,1.63
2019-01-27T12:01:21.129Z,1.10
2019-01-27T12:03:49.156Z,1.40
2019-01-27T12:06:17.273Z,1.50
2019-01-27T12:08:45.886Z,0.63
2019-01-27T12:11:15.106Z,1.60
2019-01-27T12:13:43.246Z,1.40
2019-01-27T12:16:11.486Z,1.10
2019-01-27T12:18:39.804Z,1.40
2019-01-27T12:21:08.106Z,2.10
2019-01-27T12:23:36.171Z,1.70
2019-01-27T12:26:04.983Z,0.87
2019-01-27T12:28:33.153Z,2.93
2019-01-27T12:31:01.268Z,1.40
2019-01-27T12:33:29.837Z,1.90
2019-01-27T12:35:58.881Z,3.37
2019-01-27T12:38:27.238Z,0.80
2019-01-27T12:40:55.541Z,0.90
2019-01-27T12:43:25.507Z,0.70
2019-01-27T12:45:53.597Z,1.00
2019-01-27T12:48:21.691Z,1.03
2019-01-27T12:50:50.204Z,1.53
2019-01-27T12:53:18.680Z,1.23
2019-01-27T12:55:48.668Z,0.80
2019-01-27T12:58:18.188Z,1.70
2019-01-27T13:00:51.389Z,1.27
2019-01-27T13:03:19.791Z,1.00
2019-01-27T13:05:48.302Z,1.83
2019-01-27T13:08:17.661Z,0.77
2019-01-27T13:10:46.625Z,0.70
2019-01-27T13:13:14.921Z,0.93
2019-01-27T13:15:43.345Z,1.17
2019-01-27T13:18:11.888Z,1.13
2019-01-27T13:20:40.991Z,1.23
2019-01-27T13:23:09.061Z,0.90
2019-01-27T13:25:38.558Z,1.33
2019-01-27T13:28:06.995Z,1.03
2019-01-27T13:30:35.040Z,0.77
2019-01-27T13:33:03.482Z,1.37
2019-01-27T13:35:31.670Z,1.23
2019-01-27T13:37:59.735Z,0.70
2019-01-27T13:40:27.969Z,0.70
2019-01-27T13:42:56.538Z,1.60
2019-01-27T13:45:26.600Z,1.13
2019-01-27T13:47:58.942Z,1.27
2019-01-27T13:50:24.978Z,1.53
2019-01-27T13:52:53.382Z,1.93
2019-01-27T13:55:22.587Z,2.27
2019-01-27T13:57:50.545Z,1.17
2019-01-27T14:00:21.373Z,1.10
2019-01-27T14:02:49.594Z,4.90
2019-01-27T14:05:17.818Z,1.57
2019-01-27T14:07:47.101Z,1.37
2019-01-27T14:10:16.436Z,3.90
2019-01-27T14:12:44.598Z,1.03
2019-01-27T14:15:17.498Z,2.73
2019-01-27T14:17:49.408Z,0.90
2019-01-27T14:20:20.087Z,1.43
2019-01-27T14:22:48.007Z,1.80
2019-01-27T14:25:17.020Z,2.17
2019-01-27T14:27:45.052Z,1.37
2019-01-27T14:30:14.594Z,2.00
2019-01-27T14:32:42.522Z,0.80
2019-01-27T14:35:12.210Z,2.13
2019-01-27T14:37:40.378Z,1.13
2019-01-27T14:40:09.373Z,1.83
2019-01-27T14:42:37.728Z,1.43
2019-01-27T14:45:07.602Z,2.17
2019-01-27T14:47:35.521Z,1.87
2019-01-27T14:50:03.602Z,3.47
2019-01-27T14:52:31.760Z,3.50
2019-01-27T14:54:59.682Z,2.60
2019-01-27T14:57:28.049Z,1.83
2019-01-27T14:59:56.392Z,1.90
2019-01-27T15:02:24.310Z,1.53
2019-01-27T15:04:54.141Z,1.40
2019-01-27T15:07:22.459Z,1.23
2019-01-27T15:09:50.585Z,2.97
2019-01-27T15:12:18.782Z,1.80
2019-01-27T15:14:46.901Z,2.00
2019-01-27T15:17:18.372Z,2.10
2019-01-27T15:19:46.455Z,2.40
2019-01-27T15:22:14.773Z,2.30
2019-01-27T15:24:42.744Z,2.07
2019-01-27T15:27:10.879Z,1.60
2019-01-27T15:29:39.000Z,2.70
2019-01-27T15:32:06.881Z,1.53
2019-01-27T15:34:34.916Z,1.97
2019-01-27T15:37:02.875Z,2.83
2019-01-27T15:39:30.757Z,1.20
2019-01-27T15:41:58.706Z,1.67
2019-01-27T15:44:26.681Z,2.80
2019-01-27T15:46:54.760Z,1.33
2019-01-27T15:49:22.710Z,2.03
2019-01-27T15:51:50.822Z,2.40
2019-01-27T15:54:18.978Z,1.23
2019-01-27T15:56:47.050Z,1.73
2019-01-27T15:59:15.106Z,2.10
2019-01-27T16:01:43.124Z,3.10
2019-01-27T16:04:12.230Z,2.10
2019-01-27T16:06:46.071Z,2.30
2019-01-27T16:09:14.379Z,3.93
2019-01-27T16:11:42.357Z,1.30
2019-01-27T16:14:10.345Z,3.50
2019-01-27T16:16:38.515Z,3.17
2019-01-27T16:19:06.686Z,2.17
2019-01-27T16:21:34.753Z,5.80
2019-01-27T16:24:06.035Z,5.80
2019-01-27T16:26:34.546Z,3.30
2019-01-27T16:29:02.825Z,1.83
2019-01-27T16:31:41.505Z,6.50
2019-01-27T16:34:20.008Z,3.80
2019-01-27T16:36:48.047Z,6.60
2019-01-27T16:39:16.270Z,2.50
2019-01-27T16:41:44.388Z,4.50
2019-01-27T16:44:12.738Z,5.40
2019-01-27T16:46:41.047Z,13.93
2019-01-27T16:49:10.772Z,11.90
2019-01-27T16:51:39.116Z,7.67
2019-01-27T16:54:07.817Z,8.60
2019-01-27T16:56:35.809Z,4.33
2019-01-27T16:59:03.857Z,3.40
2019-01-27T17:01:32.061Z,2.93
2019-01-27T17:04:00.391Z,3.47
2019-01-27T17:06:28.291Z,2.13
2019-01-27T17:08:56.565Z,2.83
2019-01-27T17:11:24.739Z,2.73
2019-01-27T17:13:52.749Z,2.70
2019-01-27T17:16:21.044Z,3.07
2019-01-27T17:18:50.902Z,2.90
2019-01-27T17:21:19.319Z,2.33
2019-01-27T17:23:47.645Z,2.27
2019-01-27T17:26:15.744Z,3.10
2019-01-27T17:28:43.820Z,1.70
2019-01-27T17:31:12.037Z,2.63
2019-01-27T17:33:40.575Z,2.93
2019-01-27T17:36:09.109Z,4.80
2019-01-27T17:38:40.465Z,3.97
2019-01-27T17:41:07.450Z,1.70
2019-01-27T17:43:35.845Z,2.77
2019-01-27T17:46:04.650Z,3.87
2019-01-27T17:48:34.845Z,2.20
2019-01-27T17:51:03.255Z,2.20
2019-01-27T17:53:38.479Z,1.43
2019-01-27T17:56:06.597Z,1.13
2019-01-27T17:58:55.141Z,1.30
2019-01-27T18:01:51.581Z,1.30
2019-01-27T18:04:39.296Z,1.90
2019-01-27T18:07:24.951Z,2.23
2019-01-27T18:10:10.708Z,1.63
2019-01-27T18:13:03.913Z,1.70
2019-01-27T18:15:43.179Z,1.53
2019-01-27T18:18:11.391Z,0.93
2019-01-27T18:20:42.468Z,2.20
2019-01-27T18:23:10.379Z,1.57
2019-01-27T18:25:38.709Z,1.30
2019-01-27T18:28:07.015Z,1.63
2019-01-27T18:30:35.174Z,2.37
2019-01-27T18:33:03.601Z,1.87
2019-01-27T18:35:31.734Z,0.93
2019-01-27T18:38:00.493Z,0.80
2019-01-27T18:40:29.191Z,1.00
2019-01-27T18:42:57.567Z,0.93
2019-01-27T18:45:25.649Z,1.57
2019-01-27T18:47:55.065Z,1.40
2019-01-27T18:50:23.303Z,1.03
2019-01-27T18:53:01.917Z,0.73
2019-01-27T18:55:40.882Z,1.83
2019-01-27T18:58:28.252Z,1.20
2019-01-27T19:01:21.414Z,1.13
2019-01-27T19:04:02.727Z,0.83
2019-01-27T19:07:04.991Z,0.70
2019-01-27T19:09:55.410Z,1.07
2019-01-27T19:12:40.994Z,1.10
2019-01-27T19:15:32.801Z,0.93
2019-01-27T19:18:17.291Z,1.13
2019-01-27T19:21:16.582Z,1.20
2019-01-27T19:24:16.586Z,0.90
2019-01-27T19:27:09.870Z,1.50
2019-01-27T19:30:12.020Z,2.40
2019-01-27T19:32:48.163Z,1.40
2019-01-27T19:35:35.114Z,1.23
2019-01-27T19:38:22.115Z,1.00
2019-01-27T19:41:05.825Z,1.20
2019-01-27T19:43:43.651Z,0.90
2019-01-27T19:46:30.566Z,1.30
2019-01-27T19:49:18.246Z,1.43
2019-01-27T19:51:54.179Z,1.30
2019-01-27T19:54:40.231Z,1.30
2019-01-27T19:57:29.950Z,1.10
2019-01-27T20:00:16.581Z,1.63
2019-01-27T20:03:03.599Z,1.00
2019-01-27T20:08:57.501Z,1.33
2019-01-27T20:11:59.911Z,1.63
2019-01-27T20:14:46.982Z,1.30
2019-01-27T20:17:37.256Z,1.13
2019-01-27T20:20:32.982Z,1.50
2019-01-27T20:23:20.494Z,0.80
2019-01-27T20:26:01.408Z,1.00
2019-01-27T20:28:47.350Z,1.13
2019-01-27T20:31:37.497Z,1.07
2019-01-27T20:34:23.534Z,1.00
2019-01-27T20:37:10.101Z,0.60
2019-01-27T20:39:54.884Z,1.23
2019-01-27T20:42:50.703Z,1.30
2019-01-27T20:45:28.761Z,0.70
2019-01-27T20:48:13.575Z,0.73
2019-01-27T20:51:00.743Z,1.33
2019-01-27T20:53:39.108Z,1.07
2019-01-27T20:56:29.662Z,0.80
2019-01-27T20:59:16.748Z,2.30
2019-01-27T21:01:56.488Z,1.90
2019-01-27T21:04:30.138Z,0.90
2019-01-27T21:07:07.872Z,1.33
2019-01-27T21:09:45.721Z,0.97
2019-01-27T21:12:42.004Z,1.00
2019-01-27T21:15:28.485Z,1.30
2019-01-27T21:18:15.303Z,2.33
2019-01-27T21:20:43.918Z,1.60
2019-01-27T21:23:11.808Z,3.87
2019-01-27T21:25:39.885Z,2.30
2019-01-27T21:28:07.788Z,3.07
2019-01-27T21:30:35.959Z,3.10
2019-01-27T21:33:03.982Z,2.80
2019-01-27T21:35:31.947Z,3.43
2019-01-27T21:37:59.866Z,3.10
2019-01-27T21:40:27.782Z,2.20
2019-01-27T21:42:55.771Z,1.80
2019-01-27T21:45:23.850Z,2.43
2019-01-27T21:47:51.901Z,3.63
2019-01-27T21:50:19.868Z,2.20
2019-01-27T21:52:47.755Z,2.80
2019-01-27T21:55:15.646Z,2.83
2019-01-27T21:57:43.670Z,2.40
2019-01-27T22:00:13.342Z,3.10
2019-01-27T22:02:41.251Z,3.20
2019-01-27T22:05:11.640Z,2.40
2019-01-27T22:07:40.325Z,2.90
2019-01-27T22:10:09.129Z,3.70
2019-01-27T22:12:37.283Z,3.30
2019-01-27T22:15:05.352Z,3.50
2019-01-27T22:17:33.324Z,3.40
2019-01-27T22:20:01.610Z,3.23
2019-01-27T22:22:29.807Z,3.23
2019-01-27T22:24:57.741Z,4.33
2019-01-27T22:27:26.082Z,4.10
2019-01-27T22:29:54.754Z,4.00
2019-01-27T22:32:23.064Z,4.23
2019-01-27T22:34:50.958Z,3.73
2019-01-27T22:37:18.879Z,5.40
2019-01-27T22:39:46.915Z,4.60
2019-01-27T22:42:14.784Z,4.67
2019-01-27T22:44:42.667Z,4.47
2019-01-27T22:47:10.535Z,4.40
2019-01-27T22:49:38.542Z,4.33
2019-01-27T22:52:06.473Z,4.03
2019-01-27T22:54:34.342Z,5.17
2019-01-27T22:57:02.255Z,6.63
2019-01-27T22:59:30.155Z,3.60
2019-01-27T23:01:58.201Z,4.03
2019-01-27T23:04:26.154Z,3.67
2019-01-27T23:06:54.033Z,3.80
2019-01-27T23:09:22.013Z,4.67
2019-01-27T23:11:49.932Z,6.77
2019-01-27T23:14:17.795Z,4.20
2019-01-27T23:16:45.745Z,2.50
2019-01-27T23:19:13.733Z,5.97
2019-01-27T23:21:41.664Z,3.90
2019-01-27T23:24:09.577Z,5.17
2019-01-27T23:26:37.539Z,3.07
2019-01-27T23:29:05.472Z,3.43
2019-01-27T23:31:33.388Z,3.80
2019-01-27T23:34:01.346Z,3.30
2019-01-27T23:36:29.539Z,2.80
2019-01-27T23:38:57.547Z,2.90
2019-01-27T23:41:25.509Z,3.67
2019-01-27T23:43:53.471Z,4.83
2019-01-27T23:46:21.397Z,4.07
2019-01-27T23:48:49.406Z,3.73
2019-01-27T23:51:17.376Z,7.43
2019-01-27T23:53:45.267Z,5.00
2019-01-27T23:56:13.397Z,3.50
2019-01-27T23:58:41.281Z,2.90
